Terminal Aerodrome Forecast
Issued by NWS Pueblo, CO

Home | Current Version | Previous Version | Text Only | Print | Product List | Glossary On
Versions: 1 2 3 4 5 6 7 8 9 10 11 12 13 14 15 16 17 18 19 20 21 22 23 24 25 26 27 28 29 30 31 32 33 34 35 36 37 38 39 40 41 42 43 44 45 46 47 48 49 50
724
FTUS45 KPUB 201545 AAC
TAFALS
TAF AMD
KALS 201545Z 2016/2112 16007KT 3SM BR OVC002
     FM201700 23014KT P6SM SCT008 BKN050
      TEMPO 2017/2018 BKN004
     FM201800 25016KT P6SM OVC060
     FM210200 20007KT P6SM OVC100=

USA.gov is the U.S. government's official web portal to all federal, state and local government web resources and services.